FC2ブログ

ディスパッチャーの航空気象情報

運航管理者が航空に関する気象情報サイトを集めました。 フライト前に天気チェックに。ディスパッチャーになりたい人に。
上記の広告は1ヶ月以上更新のないブログに表示されています。
新しい記事を書く事で広告が消せます。
西から移動性の高気圧に覆われるが、北日本は冬型の気圧配置が続く。
北陸以北の日本海側では、午前中まで雪が降り、関東北部の山沿いにも雪雲が流れ込む。
大雪やなだれに引き続き厳重な警戒を。
北日本では、風の強い状態も続き、強風・高波にも要注意。
そのほかの地域は、おだやかに晴れて、絶好のお出かけ日和に。
昼間の気温は、全国的に6日より高く、ようやく厳しい寒さがやわらぎそう。

by 天気のツボ

北日本をのぞいて、少し寒さもやわらいだ感じですね。
ただ北海道を中心にやや風も強そうですね。


TAF
RJCC 070840Z 0709/0812 34015KT 9999 FEW010 BKN030
TEMPO 0709/0711 34020G30KT 2000 -SHSN BKN008 BKN025
TEMPO 0711/0715 3000 -SHSN
BECMG 0713/0715 30004KT
BECMG 0800/0803 17014KT
TEMPO 0809/0812 2000 -SHSN BKN008 BKN015=



TAF
ROAH 070851Z 0709/0812 13013KT 9999 FEW010 BKN020=



札幌と沖縄のこのTAFの長さの違い
圧倒的ですね。
この季節は、沖縄方面でゆったりしたい気分になります。
沖縄もちょっとは寒いでしょうが。

天気・気象学のホームページをチェック
コメント
この記事へのコメント
コメントを投稿する
URL:
Comment:
Pass:
秘密: 管理者にだけ表示を許可する
 
トラックバック
この記事のトラックバックURL
http://wxdisp.blog113.fc2.com/tb.php/13-d195f814
この記事にトラックバックする(FC2ブログユーザー)
この記事へのトラックバック
上記広告は1ヶ月以上更新のないブログに表示されています。新しい記事を書くことで広告を消せます。